createdAt,value
2022-08-19T00:02:14.140Z,21.38
2022-08-19T00:04:41.314Z,21.36
2022-08-19T00:07:08.543Z,21.33
2022-08-19T00:09:35.799Z,21.32
2022-08-19T00:12:05.119Z,21.31
2022-08-19T00:14:33.215Z,21.30
2022-08-19T00:17:01.043Z,21.28
2022-08-19T00:19:28.274Z,21.27
2022-08-19T00:21:57.362Z,21.24
2022-08-19T00:24:25.007Z,21.25
2022-08-19T00:26:52.820Z,21.23
2022-08-19T00:29:21.912Z,21.21
2022-08-19T00:31:50.689Z,21.20
2022-08-19T00:34:17.858Z,21.19
2022-08-19T00:36:45.674Z,21.19
2022-08-19T00:39:14.029Z,21.20
2022-08-19T00:41:42.448Z,21.20
2022-08-19T00:44:17.106Z,21.20
2022-08-19T00:46:55.472Z,21.18
2022-08-19T00:49:52.389Z,21.18
2022-08-19T00:52:24.820Z,21.15
2022-08-19T00:54:53.968Z,21.13
2022-08-19T00:57:27.813Z,21.12
2022-08-19T01:00:02.569Z,21.12
2022-08-19T01:02:31.805Z,21.09
2022-08-19T01:05:00.333Z,21.08
2022-08-19T01:07:27.728Z,21.08
2022-08-19T01:09:55.058Z,21.07
2022-08-19T01:12:22.722Z,21.07
2022-08-19T01:14:51.196Z,21.08
2022-08-19T01:17:20.167Z,21.08
2022-08-19T01:19:48.072Z,21.08
2022-08-19T01:22:33.634Z,21.04
2022-08-19T01:25:02.406Z,21.05
2022-08-19T01:27:44.052Z,21.02
2022-08-19T01:30:20.578Z,20.99
2022-08-19T01:32:47.572Z,20.99
2022-08-19T01:35:18.023Z,21.00
2022-08-19T01:37:52.991Z,20.96
2022-08-19T01:40:22.585Z,20.95
2022-08-19T01:42:58.502Z,20.92
2022-08-19T01:45:27.891Z,20.89
2022-08-19T01:48:02.011Z,20.90
2022-08-19T01:50:30.597Z,20.87
2022-08-19T01:53:06.227Z,20.86
2022-08-19T01:55:41.075Z,20.83
2022-08-19T01:58:16.099Z,20.85
2022-08-19T02:00:44.409Z,20.84
2022-08-19T02:03:12.543Z,20.82
2022-08-19T02:05:43.009Z,20.81
2022-08-19T02:08:11.646Z,20.80
2022-08-19T02:10:44.517Z,20.77
2022-08-19T02:13:14.582Z,20.77
2022-08-19T02:15:42.707Z,20.76
2022-08-19T02:18:10.057Z,20.75
2022-08-19T02:20:39.643Z,20.72
2022-08-19T02:23:14.006Z,20.69
2022-08-19T02:25:48.953Z,20.67
2022-08-19T02:28:18.735Z,20.67
2022-08-19T02:30:47.725Z,20.65
2022-08-19T02:33:15.013Z,20.63
2022-08-19T02:35:44.143Z,20.63
2022-08-19T02:38:26.795Z,20.64
2022-08-19T02:40:57.510Z,20.65
2022-08-19T02:43:25.654Z,20.63
2022-08-19T02:45:53.079Z,20.62
2022-08-19T02:48:22.049Z,20.63
2022-08-19T02:50:56.379Z,20.63
2022-08-19T02:53:27.867Z,20.62
2022-08-19T02:55:55.810Z,20.60
2022-08-19T02:58:25.195Z,20.60
2022-08-19T03:00:55.297Z,20.58
2022-08-19T03:03:22.886Z,20.57
2022-08-19T03:05:56.962Z,20.58
2022-08-19T03:08:26.216Z,20.57
2022-08-19T03:10:55.011Z,20.58
2022-08-19T03:13:22.556Z,20.58
2022-08-19T03:15:50.204Z,20.59
2022-08-19T03:18:18.330Z,20.61
2022-08-19T03:20:48.247Z,20.63
2022-08-19T03:23:17.422Z,20.66
2022-08-19T03:25:47.099Z,20.66
2022-08-19T03:28:26.042Z,20.72
2022-08-19T03:31:05.319Z,20.75
2022-08-19T03:33:53.084Z,20.82
2022-08-19T03:36:26.330Z,20.85
2022-08-19T03:38:59.700Z,20.93
2022-08-19T03:41:44.670Z,20.97
2022-08-19T03:44:19.650Z,21.07
2022-08-19T03:46:50.247Z,21.19
2022-08-19T03:49:18.775Z,21.29
2022-08-19T03:51:48.905Z,21.38
2022-08-19T03:54:18.565Z,21.48
2022-08-19T03:56:48.175Z,21.64
2022-08-19T03:59:23.346Z,21.76
2022-08-19T04:01:54.941Z,21.94
2022-08-19T04:04:22.684Z,22.11
2022-08-19T04:06:50.317Z,22.31
2022-08-19T04:09:17.688Z,22.61
2022-08-19T04:11:51.079Z,22.92
2022-08-19T04:14:23.328Z,23.23
2022-08-19T04:16:58.171Z,23.54
2022-08-19T04:19:27.021Z,23.78
2022-08-19T04:21:55.379Z,24.03
2022-08-19T04:24:23.821Z,24.23
2022-08-19T04:26:54.225Z,24.44
2022-08-19T04:29:28.778Z,24.64
2022-08-19T04:31:57.811Z,24.78
2022-08-19T04:34:29.398Z,24.96
2022-08-19T04:36:59.696Z,25.15
2022-08-19T04:39:49.649Z,25.32
2022-08-19T04:42:37.241Z,25.53
2022-08-19T04:45:09.443Z,25.74
2022-08-19T04:47:47.891Z,25.94
2022-08-19T04:50:27.931Z,26.26
2022-08-19T04:52:56.783Z,26.60
2022-08-19T04:55:26.760Z,26.79
2022-08-19T04:57:55.690Z,27.03
2022-08-19T05:00:24.643Z,27.20
2022-08-19T05:02:53.750Z,27.29
2022-08-19T05:05:20.929Z,27.26
2022-08-19T05:07:48.365Z,27.42
2022-08-19T05:10:18.055Z,27.61
2022-08-19T05:12:45.138Z,27.63
2022-08-19T05:15:15.680Z,27.73
2022-08-19T05:18:03.751Z,27.97
2022-08-19T05:20:50.102Z,28.01
2022-08-19T05:23:21.880Z,27.91
2022-08-19T05:25:54.526Z,27.57
2022-08-19T05:28:26.016Z,27.12
2022-08-19T05:30:56.595Z,26.66
2022-08-19T05:33:27.687Z,26.32
2022-08-19T05:35:57.104Z,26.02
2022-08-19T05:38:24.188Z,25.75
2022-08-19T05:40:51.187Z,25.53
2022-08-19T05:43:20.754Z,25.36
2022-08-19T05:46:03.319Z,25.17
2022-08-19T05:48:32.784Z,25.04
2022-08-19T05:51:09.441Z,24.89
2022-08-19T05:53:36.759Z,24.80
2022-08-19T05:56:10.504Z,24.69
2022-08-19T05:58:42.015Z,24.61
2022-08-19T06:01:19.368Z,24.57
2022-08-19T06:03:50.062Z,24.51
2022-08-19T06:06:18.373Z,24.45
2022-08-19T06:08:53.173Z,24.43
2022-08-19T06:11:59.336Z,24.44
2022-08-19T06:14:31.697Z,24.38
2022-08-19T06:17:07.029Z,24.36
2022-08-19T06:19:34.832Z,24.35
2022-08-19T06:22:16.475Z,24.35
2022-08-19T06:24:48.711Z,24.36
2022-08-19T06:27:17.952Z,24.39
2022-08-19T06:29:46.055Z,24.41
2022-08-19T06:32:17.494Z,24.45
2022-08-19T06:34:48.658Z,24.45
2022-08-19T06:37:16.134Z,24.47
2022-08-19T06:39:45.116Z,24.54
2022-08-19T06:42:14.434Z,24.57
2022-08-19T06:44:43.799Z,24.55
2022-08-19T06:47:23.487Z,24.55
2022-08-19T06:50:05.818Z,24.60
2022-08-19T06:52:47.860Z,24.64
2022-08-19T06:55:16.868Z,24.72
2022-08-19T06:57:49.354Z,24.79
2022-08-19T07:00:17.095Z,24.83
2022-08-19T07:02:50.601Z,24.85
2022-08-19T07:05:28.138Z,24.94
2022-08-19T07:07:57.592Z,25.09
2022-08-19T07:10:27.421Z,25.18
2022-08-19T07:12:55.921Z,25.22
2022-08-19T07:15:24.899Z,25.27
2022-08-19T07:17:53.266Z,25.34
2022-08-19T07:20:22.174Z,25.43
2022-08-19T07:22:59.602Z,25.54
2022-08-19T07:25:32.505Z,25.67
2022-08-19T07:28:01.481Z,25.73
2022-08-19T07:30:28.999Z,25.76
2022-08-19T07:32:58.628Z,25.72
2022-08-19T07:35:26.030Z,25.78
2022-08-19T07:37:54.365Z,25.83
2022-08-19T07:40:29.155Z,25.95
2022-08-19T07:42:56.823Z,26.02
2022-08-19T07:45:24.675Z,26.19
2022-08-19T07:47:52.170Z,26.32
2022-08-19T07:50:24.404Z,26.39
2022-08-19T07:52:55.769Z,26.45
2022-08-19T07:55:41.390Z,26.58
2022-08-19T07:58:17.582Z,26.66
2022-08-19T08:00:48.531Z,26.83
2022-08-19T08:03:20.393Z,27.00
2022-08-19T08:06:06.690Z,27.13
2022-08-19T08:08:52.864Z,27.16
2022-08-19T08:11:24.008Z,27.27
2022-08-19T08:14:00.313Z,27.30
2022-08-19T08:19:40.821Z,27.50
2022-08-19T08:22:33.257Z,27.56
2022-08-19T08:25:11.323Z,28.27
2022-08-19T08:27:43.401Z,29.30
2022-08-19T08:33:19.255Z,31.19
2022-08-19T08:36:09.250Z,32.29
2022-08-19T08:38:41.255Z,32.89
2022-08-19T08:41:48.714Z,32.52
2022-08-19T08:44:22.029Z,32.83
2022-08-19T08:47:01.877Z,32.85
2022-08-19T08:49:43.626Z,32.62
2022-08-19T08:52:24.886Z,33.00
2022-08-19T08:55:10.114Z,32.96
2022-08-19T08:58:06.725Z,33.07
2022-08-19T09:00:43.804Z,32.98
2022-08-19T09:03:20.348Z,32.74
2022-08-19T09:06:21.143Z,32.65
2022-08-19T09:09:11.854Z,32.69
2022-08-19T09:11:46.614Z,33.20
2022-08-19T09:14:49.846Z,33.63
2022-08-19T09:17:19.004Z,34.06
2022-08-19T09:20:09.919Z,34.82
2022-08-19T09:22:45.083Z,34.67
2022-08-19T09:25:16.720Z,33.93
2022-08-19T09:27:44.369Z,33.61
2022-08-19T09:30:15.168Z,33.57
2022-08-19T09:33:05.913Z,33.72
2022-08-19T09:35:33.505Z,34.34
2022-08-19T09:38:17.653Z,34.39
2022-08-19T09:40:45.926Z,35.13
2022-08-19T09:43:15.020Z,35.70
2022-08-19T09:46:04.019Z,35.57
2022-08-19T09:48:34.388Z,34.87
2022-08-19T09:51:17.707Z,35.36
2022-08-19T09:53:46.269Z,35.90
2022-08-19T09:56:14.636Z,36.81
2022-08-19T09:58:41.759Z,37.55
2022-08-19T10:01:12.324Z,37.91
2022-08-19T10:04:00.092Z,38.08
2022-08-19T10:06:38.221Z,38.00
2022-08-19T10:09:16.301Z,38.15
2022-08-19T10:11:55.356Z,38.28
2022-08-19T10:14:24.717Z,38.42
2022-08-19T10:16:53.118Z,38.23
2022-08-19T10:19:25.891Z,37.86
2022-08-19T10:22:00.197Z,37.57
2022-08-19T10:24:29.165Z,38.29
2022-08-19T10:26:59.771Z,37.17
2022-08-19T10:29:33.546Z,35.00
2022-08-19T10:32:03.551Z,35.45
2022-08-19T10:34:31.796Z,34.98
2022-08-19T10:37:03.048Z,35.13
2022-08-19T10:39:43.536Z,34.02
2022-08-19T10:42:26.159Z,33.65
2022-08-19T10:44:53.843Z,33.62
2022-08-19T10:47:26.049Z,33.32
2022-08-19T10:50:17.414Z,32.88
2022-08-19T10:52:49.560Z,33.03
2022-08-19T10:55:40.338Z,33.08
2022-08-19T10:58:16.000Z,33.22
2022-08-19T11:00:47.128Z,33.64
2022-08-19T11:03:14.557Z,33.11
2022-08-19T11:05:42.408Z,33.07
2022-08-19T11:08:23.402Z,33.06
2022-08-19T11:11:00.331Z,32.50
2022-08-19T11:13:30.025Z,32.04
2022-08-19T11:16:07.410Z,31.84
2022-08-19T11:18:44.617Z,31.98
2022-08-19T11:21:20.415Z,31.91
2022-08-19T11:23:50.293Z,32.05
2022-08-19T11:26:18.609Z,32.12
2022-08-19T11:28:46.022Z,32.09
2022-08-19T11:31:19.669Z,31.96
2022-08-19T11:33:47.996Z,31.76
2022-08-19T11:36:16.369Z,31.62
2022-08-19T11:38:45.183Z,31.30
2022-08-19T11:41:12.454Z,31.04
2022-08-19T11:43:41.029Z,30.93
2022-08-19T11:46:10.976Z,30.78
2022-08-19T11:48:39.131Z,30.54
2022-08-19T11:51:09.803Z,30.21
2022-08-19T11:53:37.829Z,30.15
2022-08-19T11:56:05.688Z,30.23
2022-08-19T11:58:33.490Z,30.31
2022-08-19T12:01:00.752Z,30.32
2022-08-19T12:03:29.073Z,30.20
2022-08-19T12:05:56.525Z,30.24
2022-08-19T12:08:23.773Z,30.32
2022-08-19T12:10:50.889Z,30.35
2022-08-19T12:13:19.940Z,30.47
2022-08-19T12:15:48.941Z,30.52
2022-08-19T12:18:16.218Z,30.67
2022-08-19T12:20:44.245Z,30.70
2022-08-19T12:23:11.910Z,30.65
2022-08-19T12:25:51.013Z,30.66
2022-08-19T12:28:21.312Z,30.67
2022-08-19T12:30:52.124Z,30.74
2022-08-19T12:33:25.131Z,30.82
2022-08-19T12:35:53.106Z,30.90
2022-08-19T12:38:20.762Z,31.10
2022-08-19T12:40:48.360Z,31.26
2022-08-19T12:43:16.998Z,31.34
2022-08-19T12:45:44.798Z,31.37
2022-08-19T12:48:33.325Z,31.18
2022-08-19T12:51:11.177Z,31.05
2022-08-19T12:53:39.039Z,31.02
2022-08-19T12:56:23.368Z,31.02
2022-08-19T12:58:53.078Z,31.09
2022-08-19T13:01:24.216Z,30.96
2022-08-19T13:03:54.918Z,30.91
2022-08-19T13:06:23.965Z,30.83
2022-08-19T13:11:36.361Z,30.85
2022-08-19T13:14:04.841Z,30.80
2022-08-19T13:16:32.532Z,30.85
2022-08-19T13:18:59.868Z,30.99
2022-08-19T13:21:31.916Z,30.92
2022-08-19T13:24:05.122Z,30.91
2022-08-19T13:26:35.220Z,30.95
2022-08-19T13:29:20.795Z,30.80
2022-08-19T13:32:17.666Z,30.82
2022-08-19T13:34:48.426Z,30.98
2022-08-19T13:37:15.827Z,31.05
2022-08-19T13:39:42.910Z,31.03
2022-08-19T13:42:11.578Z,31.02
2022-08-19T13:44:38.909Z,30.92
2022-08-19T13:47:07.904Z,30.91
2022-08-19T13:49:37.349Z,30.83
2022-08-19T13:52:06.567Z,30.90
2022-08-19T13:57:16.637Z,30.91
2022-08-19T13:59:43.665Z,30.94
2022-08-19T14:02:11.814Z,30.98
2022-08-19T14:04:39.137Z,30.99
2022-08-19T14:07:06.164Z,31.00
2022-08-19T14:09:33.182Z,30.90
2022-08-19T14:12:00.548Z,30.92
2022-08-19T14:14:27.605Z,31.00
2022-08-19T14:16:54.601Z,31.03
2022-08-19T14:19:22.436Z,31.06
2022-08-19T14:21:51.452Z,31.07
2022-08-19T14:24:18.443Z,31.00
2022-08-19T14:26:45.808Z,30.98
2022-08-19T14:29:14.002Z,31.00
2022-08-19T14:31:43.687Z,31.01
2022-08-19T14:34:11.561Z,31.05
2022-08-19T14:36:40.295Z,31.02
2022-08-19T14:39:34.269Z,30.93
2022-08-19T14:42:11.411Z,30.94
2022-08-19T14:44:39.074Z,30.92
2022-08-19T14:47:08.775Z,30.93
2022-08-19T14:49:42.342Z,30.92
2022-08-19T14:52:13.501Z,30.99
2022-08-19T14:54:46.368Z,30.81
2022-08-19T14:57:17.902Z,30.73
2022-08-19T14:59:45.167Z,30.69
2022-08-19T15:02:34.297Z,30.66
2022-08-19T15:05:02.681Z,30.70
2022-08-19T15:07:33.285Z,30.66
2022-08-19T15:10:07.872Z,30.64
2022-08-19T15:12:40.512Z,30.62
2022-08-19T15:15:14.299Z,30.53
2022-08-19T15:17:46.561Z,30.54
2022-08-19T15:20:19.552Z,30.58
2022-08-19T15:22:49.262Z,30.55
2022-08-19T15:25:19.742Z,30.49
2022-08-19T15:27:47.432Z,30.43
2022-08-19T15:30:22.141Z,30.41
2022-08-19T15:32:53.606Z,30.34
2022-08-19T15:35:23.460Z,30.33
2022-08-19T15:37:52.376Z,30.34
2022-08-19T15:40:21.125Z,30.29
2022-08-19T15:42:50.067Z,30.29
2022-08-19T15:45:23.601Z,30.27
2022-08-19T15:48:08.195Z,30.23
2022-08-19T15:50:36.000Z,30.19
2022-08-19T15:53:09.480Z,30.17
2022-08-19T15:55:42.726Z,30.13
2022-08-19T15:58:33.679Z,30.07
2022-08-19T16:01:26.907Z,30.02
2022-08-19T16:04:15.924Z,29.94
2022-08-19T16:06:52.902Z,29.90
2022-08-19T16:09:27.631Z,29.84
2022-08-19T16:12:06.031Z,29.75
2022-08-19T16:14:35.596Z,29.72
2022-08-19T16:17:15.471Z,29.64
2022-08-19T16:19:52.603Z,29.55
2022-08-19T16:22:19.877Z,29.51
2022-08-19T16:24:47.460Z,29.48
2022-08-19T16:27:16.195Z,29.43
2022-08-19T16:29:43.270Z,29.38
2022-08-19T16:32:12.155Z,29.32
2022-08-19T16:34:43.837Z,29.25
2022-08-19T16:37:10.905Z,29.12
2022-08-19T16:39:43.666Z,29.01
2022-08-19T16:42:12.175Z,28.90
2022-08-19T16:44:47.519Z,28.75
2022-08-19T16:47:18.088Z,28.64
2022-08-19T16:49:54.540Z,28.49
2022-08-19T16:52:27.109Z,28.40
2022-08-19T16:54:55.718Z,28.30
2022-08-19T16:57:27.054Z,28.15
2022-08-19T16:59:55.200Z,28.02
2022-08-19T17:02:30.465Z,27.89
2022-08-19T17:05:01.199Z,27.77
2022-08-19T17:07:33.572Z,27.66
2022-08-19T17:10:02.610Z,27.53
2022-08-19T17:12:31.958Z,27.38
2022-08-19T17:15:04.093Z,27.22
2022-08-19T17:17:33.532Z,27.11
2022-08-19T17:20:02.880Z,26.93
2022-08-19T17:22:36.881Z,26.78
2022-08-19T17:25:07.721Z,26.66
2022-08-19T17:27:34.832Z,26.51
2022-08-19T17:30:06.877Z,26.41
2022-08-19T17:32:37.226Z,26.32
2022-08-19T17:35:07.359Z,26.25
2022-08-19T17:37:38.733Z,26.14
2022-08-19T17:40:09.217Z,26.02
2022-08-19T17:42:37.223Z,25.94
2022-08-19T17:45:05.589Z,25.84
2022-08-19T17:47:36.135Z,25.74
2022-08-19T17:50:13.246Z,25.65
2022-08-19T17:52:52.497Z,25.52
2022-08-19T17:55:20.983Z,25.43
2022-08-19T17:57:52.971Z,25.34
2022-08-19T18:00:22.000Z,25.24
2022-08-19T18:02:54.262Z,25.11
2022-08-19T18:05:29.653Z,25.02
2022-08-19T18:07:58.583Z,24.96
2022-08-19T18:10:31.447Z,24.90
2022-08-19T18:13:02.442Z,24.84
2022-08-19T18:15:45.541Z,24.80
2022-08-19T18:18:14.914Z,24.78
2022-08-19T18:20:44.292Z,24.78
2022-08-19T18:23:43.780Z,24.76
2022-08-19T18:25:58.779Z,24.69
2022-08-19T18:28:27.051Z,24.65
2022-08-19T18:30:54.107Z,24.64
2022-08-19T18:33:47.030Z,24.64
2022-08-19T18:36:14.272Z,24.61
2022-08-19T18:39:02.868Z,24.60
2022-08-19T18:41:54.480Z,24.59
2022-08-19T18:44:41.377Z,24.55
2022-08-19T18:47:36.122Z,24.54
2022-08-19T18:50:11.793Z,24.49
2022-08-19T18:52:40.107Z,24.41
2022-08-19T18:55:09.149Z,24.36
2022-08-19T18:57:36.525Z,24.32
2022-08-19T19:00:05.586Z,24.31
2022-08-19T19:02:39.107Z,24.33
2022-08-19T19:05:10.424Z,24.35
2022-08-19T19:07:42.914Z,24.38
2022-08-19T19:10:11.348Z,24.36
2022-08-19T19:12:43.621Z,24.34
2022-08-19T19:15:12.070Z,24.30
2022-08-19T19:17:42.840Z,24.25
2022-08-19T19:20:10.084Z,24.22
2022-08-19T19:22:40.218Z,24.22
2022-08-19T19:25:15.260Z,24.17
2022-08-19T19:27:46.124Z,24.15
2022-08-19T19:30:16.064Z,24.15
2022-08-19T19:32:43.117Z,24.14
2022-08-19T19:37:57.315Z,24.13
2022-08-19T19:40:24.479Z,24.12
2022-08-19T19:42:52.120Z,24.09
2022-08-19T19:45:25.178Z,24.07
2022-08-19T19:47:57.688Z,24.03
2022-08-19T19:50:31.709Z,23.99
2022-08-19T19:53:21.064Z,23.95
2022-08-19T19:55:50.986Z,23.91
2022-08-19T19:58:21.251Z,23.87
2022-08-19T20:01:01.576Z,23.90
2022-08-19T20:03:36.426Z,23.89
2022-08-19T20:06:03.674Z,23.86
2022-08-19T20:08:55.349Z,23.87
2022-08-19T20:11:41.467Z,23.87
2022-08-19T20:14:16.332Z,23.83
2022-08-19T20:16:48.191Z,23.79
2022-08-19T20:19:21.257Z,23.74
2022-08-19T20:22:14.062Z,23.69
2022-08-19T20:24:45.390Z,23.63
2022-08-19T20:27:12.951Z,23.71
2022-08-19T20:29:44.428Z,23.72
2022-08-19T20:32:15.764Z,23.72
2022-08-19T20:34:44.799Z,23.72
2022-08-19T20:37:14.993Z,23.85
2022-08-19T20:39:42.557Z,23.99
2022-08-19T20:42:13.408Z,24.08
2022-08-19T20:44:44.740Z,24.22
2022-08-19T20:47:12.460Z,24.35
2022-08-19T20:49:42.712Z,24.43
2022-08-19T20:52:10.637Z,24.42
2022-08-19T20:54:41.775Z,24.41
2022-08-19T20:57:08.881Z,24.42
2022-08-19T20:59:40.785Z,24.42
2022-08-19T21:02:14.860Z,24.45
2022-08-19T21:04:46.285Z,24.48
2022-08-19T21:07:17.757Z,24.49
2022-08-19T21:09:44.827Z,24.50
2022-08-19T21:12:13.112Z,24.51
2022-08-19T21:14:47.228Z,24.47
2022-08-19T21:17:17.306Z,24.42
2022-08-19T21:19:44.733Z,24.34
2022-08-19T21:22:11.772Z,24.28
2022-08-19T21:24:43.233Z,24.18
2022-08-19T21:27:12.603Z,24.08
2022-08-19T21:29:43.335Z,23.99
2022-08-19T21:32:14.067Z,23.91
2022-08-19T21:34:46.666Z,23.80
2022-08-19T21:37:25.397Z,23.74
2022-08-19T21:39:54.877Z,23.65
2022-08-19T21:42:25.749Z,23.58
2022-08-19T21:44:53.406Z,23.49
2022-08-19T21:47:23.191Z,23.44
2022-08-19T21:49:50.964Z,23.38
2022-08-19T21:52:35.009Z,23.31
2022-08-19T21:55:07.811Z,23.28
2022-08-19T21:57:41.320Z,23.25
2022-08-19T22:00:25.543Z,23.20
2022-08-19T22:02:53.129Z,23.20
2022-08-19T22:05:23.299Z,23.23
2022-08-19T22:07:51.791Z,23.27
2022-08-19T22:10:32.857Z,23.32
2022-08-19T22:12:59.970Z,23.37
2022-08-19T22:15:32.166Z,23.40
2022-08-19T22:18:03.586Z,23.40
2022-08-19T22:20:32.808Z,23.40
2022-08-19T22:23:06.683Z,23.37
2022-08-19T22:25:45.606Z,23.26
2022-08-19T22:28:14.605Z,23.16
2022-08-19T22:30:51.209Z,23.06
2022-08-19T22:33:22.456Z,22.98
2022-08-19T22:35:54.503Z,22.95
2022-08-19T22:38:23.022Z,22.92
2022-08-19T22:40:54.055Z,22.93
2022-08-19T22:43:26.910Z,22.92
2022-08-19T22:45:58.745Z,22.94
2022-08-19T22:48:28.374Z,22.92
2022-08-19T22:51:19.448Z,22.91
2022-08-19T22:53:47.791Z,22.86
2022-08-19T22:56:19.666Z,22.88
2022-08-19T22:58:54.423Z,22.86
2022-08-19T23:01:30.368Z,22.83
2022-08-19T23:04:03.854Z,22.82
2022-08-19T23:06:38.145Z,22.80
2022-08-19T23:09:11.230Z,22.75
2022-08-19T23:11:46.510Z,22.72
2022-08-19T23:14:17.111Z,22.68
2022-08-19T23:16:50.436Z,22.70
2022-08-19T23:19:19.388Z,22.74
2022-08-19T23:21:49.616Z,22.77
2022-08-19T23:24:17.060Z,22.78
2022-08-19T23:27:04.545Z,22.73
2022-08-19T23:29:54.426Z,22.70
2022-08-19T23:32:23.651Z,22.66
2022-08-19T23:34:55.399Z,22.62
2022-08-19T23:37:22.618Z,22.58
2022-08-19T23:39:50.966Z,22.56
2022-08-19T23:42:18.496Z,22.53
2022-08-19T23:44:52.312Z,22.49
2022-08-19T23:47:22.200Z,22.47
2022-08-19T23:49:49.834Z,22.45
2022-08-19T23:52:16.811Z,22.43
2022-08-19T23:54:44.126Z,22.45
2022-08-19T23:57:13.697Z,22.44
2022-08-19T23:59:45.674Z,22.39
